createdAt,value
2022-12-11T00:01:13.399Z,29.60
2022-12-11T00:03:41.889Z,31.17
2022-12-11T00:06:14.475Z,29.50
2022-12-11T00:08:42.843Z,29.60
2022-12-11T00:11:12.946Z,30.37
2022-12-11T00:13:41.503Z,29.83
2022-12-11T00:16:10.604Z,28.73
2022-12-11T00:18:39.091Z,29.03
2022-12-11T00:21:10.299Z,31.50
2022-12-11T00:23:40.200Z,28.43
2022-12-11T00:26:10.450Z,29.53
2022-12-11T00:28:38.859Z,30.80
2022-12-11T00:31:08.733Z,29.40
2022-12-11T00:33:37.146Z,29.23
2022-12-11T00:36:11.708Z,30.07
2022-12-11T00:38:41.670Z,29.50
2022-12-11T00:41:10.403Z,28.97
2022-12-11T00:43:38.952Z,29.53
2022-12-11T00:46:07.498Z,29.30
2022-12-11T00:48:36.376Z,29.97
2022-12-11T00:51:05.133Z,29.70
2022-12-11T00:53:34.044Z,30.63
2022-12-11T00:56:09.986Z,29.00
2022-12-11T00:58:38.291Z,30.57
2022-12-11T01:01:09.148Z,29.47
2022-12-11T01:03:37.979Z,32.90
2022-12-11T01:06:07.030Z,30.20
2022-12-11T01:08:38.719Z,32.10
2022-12-11T01:11:10.045Z,30.53
2022-12-11T01:13:39.006Z,31.70
2022-12-11T01:16:09.164Z,29.90
2022-12-11T01:18:37.973Z,29.00
2022-12-11T01:21:11.302Z,31.50
2022-12-11T01:23:40.296Z,32.40
2022-12-11T01:26:12.410Z,29.53
2022-12-11T01:28:41.236Z,29.80
2022-12-11T01:31:10.121Z,31.23
2022-12-11T01:33:38.910Z,32.70
2022-12-11T01:36:10.091Z,28.90
2022-12-11T01:38:38.428Z,29.70
2022-12-11T01:41:07.097Z,31.30
2022-12-11T01:43:37.163Z,28.50
2022-12-11T01:46:05.768Z,30.57
2022-12-11T01:48:39.230Z,32.30
2022-12-11T01:51:10.504Z,29.40
2022-12-11T01:53:44.111Z,29.17
2022-12-11T01:56:12.583Z,28.37
2022-12-11T01:58:45.394Z,30.17
2022-12-11T02:01:21.089Z,27.93
2022-12-11T02:03:49.746Z,28.80
2022-12-11T02:06:37.003Z,28.23
2022-12-11T02:09:08.315Z,27.03
2022-12-11T02:11:47.238Z,29.67
2022-12-11T02:14:29.228Z,27.70
2022-12-11T02:17:05.710Z,27.87
2022-12-11T02:19:50.322Z,28.17
2022-12-11T02:22:29.199Z,28.47
2022-12-11T02:25:09.233Z,27.67
2022-12-11T02:27:43.015Z,27.83
2022-12-11T02:30:14.946Z,25.87
2022-12-11T02:32:49.108Z,25.37
2022-12-11T02:35:22.491Z,26.67
2022-12-11T02:37:57.500Z,25.90
2022-12-11T02:40:30.683Z,24.40
2022-12-11T02:43:04.041Z,24.60
2022-12-11T02:45:35.023Z,22.33
2022-12-11T02:48:06.843Z,25.03
2022-12-11T02:50:37.428Z,24.43
2022-12-11T02:53:07.517Z,25.00
2022-12-11T02:55:39.116Z,27.30
2022-12-11T02:58:14.025Z,27.00
2022-12-11T03:00:45.150Z,27.47
2022-12-11T03:03:13.864Z,25.67
2022-12-11T03:05:43.055Z,28.73
2022-12-11T03:08:12.322Z,26.87
2022-12-11T03:10:40.839Z,26.93
2022-12-11T03:13:09.152Z,25.63
2022-12-11T03:15:47.828Z,26.60
2022-12-11T03:18:28.763Z,25.70
2022-12-11T03:21:06.084Z,26.10
2022-12-11T03:23:41.195Z,27.17
2022-12-11T03:26:14.227Z,26.80
2022-12-11T03:28:46.796Z,27.27
2022-12-11T03:31:21.640Z,25.70
2022-12-11T03:33:55.407Z,26.33
2022-12-11T03:36:27.950Z,25.40
2022-12-11T03:39:00.744Z,25.97
2022-12-11T03:41:32.293Z,26.87
2022-12-11T03:44:00.875Z,26.17
2022-12-11T03:46:32.620Z,25.73
2022-12-11T03:49:06.670Z,25.43
2022-12-11T03:51:36.897Z,25.03
2022-12-11T03:54:05.682Z,27.27
2022-12-11T03:56:37.660Z,25.73
2022-12-11T03:59:06.124Z,26.63
2022-12-11T04:01:34.464Z,24.80
2022-12-11T04:04:04.251Z,24.73
2022-12-11T04:06:32.706Z,25.53
2022-12-11T04:09:01.176Z,23.37
2022-12-11T04:11:39.633Z,21.57
2022-12-11T04:14:28.482Z,23.37
2022-12-11T04:16:57.799Z,22.40
2022-12-11T04:19:45.572Z,21.80
2022-12-11T04:22:32.897Z,21.73
2022-12-11T04:25:01.464Z,21.57
2022-12-11T04:27:47.563Z,21.80
2022-12-11T04:30:18.020Z,20.27
2022-12-11T04:32:46.505Z,19.50
2022-12-11T04:35:16.479Z,20.53
2022-12-11T04:37:44.834Z,22.00
2022-12-11T04:40:15.862Z,22.60
2022-12-11T04:42:44.473Z,19.73
2022-12-11T04:45:13.921Z,21.17
2022-12-11T04:47:42.837Z,20.23
2022-12-11T04:50:13.280Z,19.67
2022-12-11T04:52:43.711Z,20.10
2022-12-11T04:55:13.199Z,19.57
2022-12-11T04:57:42.081Z,20.10
2022-12-11T05:00:13.402Z,19.60
2022-12-11T05:02:43.507Z,17.53
2022-12-11T05:05:13.135Z,19.67
2022-12-11T05:07:43.648Z,17.20
2022-12-11T05:10:12.039Z,17.70
2022-12-11T05:12:40.442Z,16.07
2022-12-11T05:15:10.046Z,17.17
2022-12-11T05:17:38.924Z,16.30
2022-12-11T05:20:08.509Z,16.43
2022-12-11T05:22:37.240Z,15.47
2022-12-11T05:25:08.222Z,15.63
2022-12-11T05:27:36.647Z,15.23
2022-12-11T05:30:06.068Z,15.57
2022-12-11T05:32:34.623Z,14.13
2022-12-11T05:35:03.777Z,14.80
2022-12-11T05:37:34.037Z,13.43
2022-12-11T05:40:02.552Z,15.20
2022-12-11T05:42:32.359Z,14.67
2022-12-11T05:45:00.616Z,16.57
2022-12-11T05:47:28.945Z,16.63
2022-12-11T05:49:57.371Z,16.77
2022-12-11T05:52:25.699Z,14.63
2022-12-11T05:54:54.060Z,16.07
2022-12-11T05:57:22.472Z,16.03
2022-12-11T05:59:52.266Z,16.57
2022-12-11T06:02:20.723Z,16.33
2022-12-11T06:04:49.296Z,17.87
2022-12-11T06:07:17.801Z,18.00
2022-12-11T06:09:46.316Z,15.83
2022-12-11T06:12:14.710Z,15.30
2022-12-11T06:14:43.188Z,17.07
2022-12-11T06:17:12.943Z,16.43
2022-12-11T06:19:41.365Z,15.43
2022-12-11T06:22:09.839Z,15.00
2022-12-11T06:24:38.458Z,14.93
2022-12-11T06:27:06.762Z,15.17
2022-12-11T06:29:35.776Z,15.00
2022-12-11T06:32:04.357Z,15.83
2022-12-11T06:34:34.232Z,16.40
2022-12-11T06:37:02.746Z,16.33
2022-12-11T06:39:31.287Z,18.47
2022-12-11T06:41:59.743Z,22.10
2022-12-11T06:44:28.323Z,25.43
2022-12-11T06:46:56.736Z,26.33
2022-12-11T06:49:25.227Z,26.30
2022-12-11T06:51:54.956Z,29.30
2022-12-11T06:54:27.105Z,28.63
2022-12-11T06:56:55.663Z,28.50
2022-12-11T06:59:24.323Z,30.37
2022-12-11T07:01:52.858Z,29.07
2022-12-11T07:04:24.705Z,30.63
2022-12-11T07:06:54.849Z,32.17
2022-12-11T07:09:24.000Z,32.17
2022-12-11T07:11:52.936Z,33.07
2022-12-11T07:14:21.560Z,33.10
2022-12-11T07:16:50.068Z,30.00
2022-12-11T07:19:18.646Z,33.50
2022-12-11T07:21:46.926Z,32.30
2022-12-11T07:24:16.910Z,33.50
2022-12-11T07:26:45.380Z,32.40
2022-12-11T07:29:13.782Z,34.53
2022-12-11T07:31:42.331Z,36.30
2022-12-11T07:34:14.168Z,35.97
2022-12-11T07:36:43.011Z,33.50
2022-12-11T07:39:13.056Z,35.17
2022-12-11T07:41:43.247Z,32.60
2022-12-11T07:44:12.547Z,39.50
2022-12-11T07:46:41.787Z,39.77
2022-12-11T07:49:10.153Z,49.17
2022-12-11T07:51:39.839Z,44.83
2022-12-11T07:54:12.067Z,44.87
2022-12-11T07:56:43.989Z,48.17
2022-12-11T07:59:12.932Z,47.10
2022-12-11T08:01:42.553Z,42.63
2022-12-11T08:04:15.573Z,48.00
2022-12-11T08:06:44.824Z,40.87
2022-12-11T08:09:21.059Z,39.10
2022-12-11T08:11:51.781Z,36.37
2022-12-11T08:14:20.869Z,36.40
2022-12-11T08:16:49.414Z,33.97
2022-12-11T08:19:18.835Z,33.03
2022-12-11T08:21:47.166Z,31.33
2022-12-11T08:24:16.404Z,32.03
2022-12-11T08:26:46.234Z,30.47
2022-12-11T08:29:16.291Z,30.17
2022-12-11T08:31:44.743Z,32.23
2022-12-11T08:34:14.227Z,32.07
2022-12-11T08:36:43.935Z,30.27
2022-12-11T08:39:12.446Z,30.13
2022-12-11T08:41:40.899Z,31.43
2022-12-11T08:44:16.269Z,30.80
2022-12-11T08:46:46.986Z,28.53
2022-12-11T08:49:15.371Z,28.77
2022-12-11T08:51:43.822Z,30.97
2022-12-11T08:54:12.310Z,30.27
2022-12-11T08:56:40.820Z,29.40
2022-12-11T08:59:09.421Z,27.57
2022-12-11T09:01:37.889Z,28.37
2022-12-11T09:04:07.762Z,28.00
2022-12-11T09:06:36.303Z,25.27
2022-12-11T09:09:05.624Z,26.03
2022-12-11T09:11:36.711Z,24.77
2022-12-11T09:14:07.854Z,25.23
2022-12-11T09:16:40.370Z,24.47
2022-12-11T09:19:14.126Z,22.37
2022-12-11T09:21:43.829Z,23.00
2022-12-11T09:24:13.545Z,25.80
2022-12-11T09:26:42.251Z,21.23
2022-12-11T09:29:14.508Z,20.47
2022-12-11T09:31:43.469Z,20.67
2022-12-11T09:34:14.785Z,19.70
2022-12-11T09:36:45.352Z,19.37
2022-12-11T09:39:15.248Z,18.57
2022-12-11T09:41:54.135Z,18.67
2022-12-11T09:44:44.538Z,18.83
2022-12-11T09:47:22.109Z,17.80
2022-12-11T09:49:58.108Z,16.97
2022-12-11T09:52:35.613Z,17.90
2022-12-11T09:55:11.213Z,19.77
2022-12-11T09:57:49.602Z,18.50
2022-12-11T10:00:25.703Z,20.20
2022-12-11T10:03:23.946Z,20.37
2022-12-11T10:06:04.471Z,20.30
2022-12-11T10:08:40.159Z,21.77
2022-12-11T10:11:25.122Z,21.70
2022-12-11T10:14:01.849Z,23.27
2022-12-11T10:16:37.133Z,20.77
2022-12-11T10:19:05.647Z,20.47
2022-12-11T10:21:43.642Z,20.50
2022-12-11T10:24:41.908Z,21.47
2022-12-11T10:27:19.301Z,22.90
2022-12-11T10:29:48.505Z,24.17
2022-12-11T10:32:24.570Z,23.33
2022-12-11T10:35:00.584Z,24.13
2022-12-11T10:37:30.436Z,24.30
2022-12-11T10:39:58.839Z,22.57
2022-12-11T10:42:27.252Z,22.07
2022-12-11T10:45:00.573Z,20.57
2022-12-11T10:47:30.058Z,22.20
2022-12-11T10:50:00.221Z,20.67
2022-12-11T10:52:34.488Z,23.80
2022-12-11T10:55:05.846Z,24.17
2022-12-11T10:57:36.873Z,22.37
2022-12-11T11:00:07.537Z,24.40
2022-12-11T11:02:37.682Z,24.03
2022-12-11T11:05:15.235Z,24.63
2022-12-11T11:07:45.380Z,24.30
2022-12-11T11:10:18.907Z,25.60
2022-12-11T11:12:48.828Z,25.57
2022-12-11T11:15:19.860Z,26.77
2022-12-11T11:17:55.140Z,28.77
2022-12-11T11:20:26.701Z,27.93
2022-12-11T11:22:58.731Z,31.77
2022-12-11T11:25:30.268Z,33.17
2022-12-11T11:28:01.363Z,37.90
2022-12-11T11:30:32.455Z,38.50
2022-12-11T11:33:06.139Z,37.63
2022-12-11T11:35:34.639Z,38.17
2022-12-11T11:38:14.355Z,42.37
2022-12-11T11:40:46.887Z,43.20
2022-12-11T11:43:22.702Z,45.70
2022-12-11T11:45:58.688Z,44.77
2022-12-11T11:48:36.445Z,41.23
2022-12-11T11:51:14.806Z,42.93
2022-12-11T11:53:49.331Z,43.40
2022-12-11T11:56:26.782Z,42.90
2022-12-11T11:59:12.888Z,41.90
2022-12-11T12:01:43.218Z,34.77
2022-12-11T12:04:13.227Z,30.27
2022-12-11T12:07:15.405Z,26.70
2022-12-11T12:09:54.630Z,24.50
2022-12-11T12:12:34.621Z,27.90
2022-12-11T12:15:25.439Z,26.70
2022-12-11T12:17:56.517Z,27.27
2022-12-11T12:20:40.046Z,23.90
2022-12-11T12:23:30.724Z,22.73
2022-12-11T12:26:26.478Z,21.80
2022-12-11T12:29:07.409Z,23.83
2022-12-11T12:32:01.449Z,25.43
2022-12-11T12:34:41.555Z,23.90
2022-12-11T12:37:17.383Z,22.60
2022-12-11T12:39:57.471Z,25.67
2022-12-11T12:42:38.823Z,22.90
2022-12-11T12:45:18.591Z,24.60
2022-12-11T12:47:53.378Z,22.67
2022-12-11T12:50:25.138Z,21.50
2022-12-11T12:52:55.238Z,22.40
2022-12-11T12:55:26.219Z,22.37
2022-12-11T12:57:58.610Z,21.77
2022-12-11T13:00:29.072Z,24.80
2022-12-11T13:02:58.188Z,24.13
2022-12-11T13:05:29.435Z,24.73
2022-12-11T13:08:00.159Z,25.27
2022-12-11T13:10:32.195Z,25.40
2022-12-11T13:13:03.040Z,25.03
2022-12-11T13:15:35.768Z,26.43
2022-12-11T13:18:07.882Z,26.73
2022-12-11T13:20:51.088Z,26.10
2022-12-11T13:23:28.114Z,24.97
2022-12-11T13:25:58.023Z,23.20
2022-12-11T13:28:33.990Z,22.97
2022-12-11T13:31:22.908Z,20.60
2022-12-11T13:33:53.980Z,20.30
2022-12-11T13:36:32.670Z,20.90
2022-12-11T13:39:05.780Z,20.07
2022-12-11T13:41:38.278Z,20.23
2022-12-11T13:44:09.446Z,19.27
2022-12-11T13:46:41.045Z,19.93
2022-12-11T13:49:19.744Z,18.93
2022-12-11T13:51:53.893Z,19.10
2022-12-11T13:54:22.307Z,20.20
2022-12-11T13:57:02.711Z,19.30
2022-12-11T13:59:37.113Z,19.47
2022-12-11T14:02:15.550Z,19.43
2022-12-11T14:04:44.565Z,20.57
2022-12-11T14:07:13.648Z,18.00
2022-12-11T14:09:46.488Z,19.90
2022-12-11T14:12:18.689Z,18.40
2022-12-11T14:14:52.335Z,18.27
2022-12-11T14:17:25.761Z,17.43
2022-12-11T14:19:59.388Z,17.63
2022-12-11T14:22:31.310Z,17.93
2022-12-11T14:25:03.503Z,17.47
2022-12-11T14:27:32.405Z,17.17
2022-12-11T14:30:12.684Z,17.20
2022-12-11T14:32:45.525Z,17.50
2022-12-11T14:35:24.192Z,16.70
2022-12-11T14:37:53.483Z,17.07
2022-12-11T14:40:28.104Z,18.50
2022-12-11T14:43:00.717Z,16.37
2022-12-11T14:45:36.028Z,16.00
2022-12-11T14:48:10.815Z,15.40
2022-12-11T14:50:43.741Z,16.60
2022-12-11T14:53:16.719Z,14.93
2022-12-11T14:55:45.334Z,16.70
2022-12-11T14:58:18.604Z,15.53
2022-12-11T15:00:58.584Z,15.27
2022-12-11T15:03:33.615Z,15.50
2022-12-11T15:06:02.414Z,15.37
2022-12-11T15:08:32.611Z,6.47
2022-12-11T15:11:05.727Z,3.90
2022-12-11T15:13:35.749Z,3.90
2022-12-11T15:16:08.770Z,3.30
2022-12-11T15:18:39.516Z,2.70
2022-12-11T15:21:10.767Z,2.93
2022-12-11T15:23:51.891Z,2.67
2022-12-11T15:26:20.729Z,3.10
2022-12-11T15:28:49.254Z,2.90
2022-12-11T15:31:28.392Z,3.00
2022-12-11T15:33:57.169Z,3.50
2022-12-11T15:36:27.770Z,2.77
2022-12-11T15:38:56.151Z,3.53
2022-12-11T15:41:26.143Z,3.33
2022-12-11T15:43:58.979Z,3.00
2022-12-11T15:46:29.540Z,4.33
2022-12-11T15:48:58.562Z,3.77
2022-12-11T15:51:27.650Z,3.17
2022-12-11T15:53:56.198Z,3.57
2022-12-11T15:56:24.570Z,3.30
2022-12-11T15:58:53.003Z,2.80
2022-12-11T16:01:21.516Z,3.60
2022-12-11T16:03:51.463Z,3.47
2022-12-11T16:06:20.039Z,2.80
2022-12-11T16:08:48.480Z,2.97
2022-12-11T16:11:16.924Z,2.70
2022-12-11T16:13:45.496Z,2.90
2022-12-11T16:16:13.858Z,3.37
2022-12-11T16:18:42.314Z,3.73
2022-12-11T16:21:16.773Z,3.33
2022-12-11T16:23:48.290Z,2.90
2022-12-11T16:26:17.071Z,3.13
2022-12-11T16:28:45.603Z,5.37
2022-12-11T16:31:15.599Z,8.93
2022-12-11T16:33:44.811Z,6.80
2022-12-11T16:36:16.079Z,4.03
2022-12-11T16:38:51.586Z,3.00
2022-12-11T16:41:22.912Z,3.00
2022-12-11T16:43:51.826Z,3.17
2022-12-11T16:46:20.469Z,2.77
2022-12-11T16:48:49.328Z,3.97
2022-12-11T16:51:19.324Z,4.80
2022-12-11T16:53:47.646Z,4.20
2022-12-11T16:56:16.019Z,4.60
2022-12-11T16:58:44.325Z,4.43
2022-12-11T17:01:13.955Z,5.00
2022-12-11T17:03:43.715Z,5.97
2022-12-11T17:06:14.524Z,6.53
2022-12-11T17:08:44.735Z,4.40
2022-12-11T17:11:15.553Z,5.43
2022-12-11T17:13:44.271Z,5.70
2022-12-11T17:16:15.043Z,4.87
2022-12-11T17:18:44.408Z,4.10
2022-12-11T17:21:15.299Z,4.33
2022-12-11T17:23:45.579Z,4.47
2022-12-11T17:26:14.346Z,4.47
2022-12-11T17:28:43.207Z,4.80
2022-12-11T17:31:14.623Z,7.23
2022-12-11T17:33:43.476Z,12.70
2022-12-11T17:36:15.583Z,61.17
2022-12-11T17:38:45.933Z,99.90
2022-12-11T17:41:33.269Z,54.80
2022-12-11T17:44:01.652Z,15.43
2022-12-11T17:46:30.263Z,7.97
2022-12-11T17:49:00.263Z,8.60
2022-12-11T17:51:28.759Z,10.20
2022-12-11T17:53:58.688Z,6.20
2022-12-11T17:56:28.134Z,5.90
2022-12-11T17:58:56.687Z,5.87
2022-12-11T18:01:25.203Z,5.70
2022-12-11T18:03:53.838Z,5.83
2022-12-11T18:06:23.197Z,5.07
2022-12-11T18:08:51.639Z,21.80
2022-12-11T18:11:22.815Z,22.30
2022-12-11T18:13:53.399Z,13.70
2022-12-11T18:16:24.441Z,9.13
2022-12-11T18:18:53.570Z,6.93
2022-12-11T18:21:25.689Z,8.07
2022-12-11T18:23:54.381Z,7.80
2022-12-11T18:26:24.411Z,8.13
2022-12-11T18:28:53.345Z,8.40
2022-12-11T18:31:22.982Z,7.37
2022-12-11T18:33:52.026Z,7.03
2022-12-11T18:36:21.475Z,6.67
2022-12-11T18:38:49.839Z,8.00
2022-12-11T18:41:19.686Z,7.97
2022-12-11T18:43:49.499Z,6.20
2022-12-11T18:46:20.818Z,5.70
2022-12-11T18:48:49.668Z,5.60
2022-12-11T18:51:20.250Z,6.00
2022-12-11T18:53:48.710Z,6.63
2022-12-11T18:56:19.571Z,5.10
2022-12-11T18:58:49.538Z,5.67
2022-12-11T19:01:20.858Z,10.00
2022-12-11T19:03:51.287Z,8.37
2022-12-11T19:06:24.301Z,6.40
2022-12-11T19:08:53.216Z,6.47
2022-12-11T19:11:24.601Z,7.33
2022-12-11T19:13:56.626Z,8.00
2022-12-11T19:16:29.732Z,8.60
2022-12-11T19:18:59.825Z,8.60
2022-12-11T19:21:28.694Z,7.33
2022-12-11T19:23:57.218Z,7.90
2022-12-11T19:26:25.751Z,7.13
2022-12-11T19:29:00.014Z,7.67
2022-12-11T19:31:30.764Z,6.07
2022-12-11T19:34:00.044Z,6.40
2022-12-11T19:36:30.497Z,7.03
2022-12-11T19:39:01.811Z,6.93
2022-12-11T19:41:31.969Z,6.70
2022-12-11T19:44:01.815Z,7.40
2022-12-11T19:46:31.260Z,7.40
2022-12-11T19:49:00.942Z,7.50
2022-12-11T19:51:31.369Z,7.87
2022-12-11T19:54:02.389Z,7.70
2022-12-11T19:56:31.800Z,7.97
2022-12-11T19:59:03.356Z,8.73
2022-12-11T20:01:33.557Z,8.10
2022-12-11T20:04:03.533Z,9.50
2022-12-11T20:06:33.518Z,7.87
2022-12-11T20:09:03.553Z,8.30
2022-12-11T20:11:33.542Z,7.60
2022-12-11T20:14:03.667Z,8.20
2022-12-11T20:17:09.234Z,9.10
2022-12-11T20:19:21.097Z,10.50
2022-12-11T20:21:49.590Z,9.87
2022-12-11T20:24:18.544Z,9.97
2022-12-11T20:26:47.199Z,8.80
2022-12-11T20:29:17.786Z,8.83
2022-12-11T20:31:47.600Z,9.37
2022-12-11T20:34:16.122Z,9.90
2022-12-11T20:36:45.123Z,12.00
2022-12-11T20:39:13.483Z,10.47
2022-12-11T20:41:42.099Z,9.97
2022-12-11T20:44:11.465Z,8.87
2022-12-11T20:46:41.774Z,8.60
2022-12-11T20:49:13.311Z,8.77
2022-12-11T20:51:42.606Z,8.90
2022-12-11T20:54:11.538Z,10.50
2022-12-11T20:56:40.866Z,10.60
2022-12-11T20:59:09.429Z,9.03
2022-12-11T21:01:37.937Z,8.77
2022-12-11T21:04:07.876Z,8.30
2022-12-11T21:06:38.764Z,7.87
2022-12-11T21:09:09.595Z,9.13
2022-12-11T21:11:38.125Z,8.80
2022-12-11T21:14:08.059Z,8.47
2022-12-11T21:16:37.820Z,10.23
2022-12-11T21:19:11.308Z,8.93
2022-12-11T21:21:45.220Z,9.40
2022-12-11T21:24:16.907Z,9.57
2022-12-11T21:26:47.087Z,10.00
2022-12-11T21:29:16.393Z,11.10
2022-12-11T21:31:45.057Z,10.10
2022-12-11T21:34:15.077Z,11.00
2022-12-11T21:36:43.390Z,10.60
2022-12-11T21:39:12.584Z,10.17
2022-12-11T21:41:41.695Z,10.50
2022-12-11T21:46:59.830Z,12.17
2022-12-11T21:49:29.673Z,12.00
2022-12-11T21:51:58.085Z,11.73
2022-12-11T21:54:26.649Z,10.83
2022-12-11T21:56:55.283Z,11.30
2022-12-11T21:59:23.827Z,21.37
2022-12-11T22:01:52.380Z,14.90
2022-12-11T22:04:21.242Z,13.00
2022-12-11T22:06:50.934Z,17.70
2022-12-11T22:09:19.341Z,15.00
2022-12-11T22:11:51.513Z,16.00
2022-12-11T22:14:22.493Z,13.00
2022-12-11T22:16:51.102Z,14.27
2022-12-11T22:19:19.842Z,16.17
2022-12-11T22:21:48.273Z,19.43
2022-12-11T22:24:19.193Z,18.30
2022-12-11T22:26:47.635Z,17.57
2022-12-11T22:29:16.196Z,21.77
2022-12-11T22:31:44.686Z,16.83
2022-12-11T22:34:13.007Z,10.07
2022-12-11T22:36:41.417Z,14.40
2022-12-11T22:39:09.906Z,12.67
2022-12-11T22:41:42.339Z,10.50
2022-12-11T22:44:14.798Z,13.17
2022-12-11T22:46:49.465Z,14.07
2022-12-11T22:49:19.087Z,15.00
2022-12-11T22:51:47.619Z,13.87
2022-12-11T22:54:15.983Z,14.00
2022-12-11T22:56:45.786Z,10.97
2022-12-11T22:59:14.153Z,7.80
2022-12-11T23:01:42.646Z,7.67
2022-12-11T23:04:11.152Z,7.27
2022-12-11T23:06:39.792Z,8.07
2022-12-11T23:09:08.566Z,7.73
2022-12-11T23:11:38.962Z,6.70
2022-12-11T23:14:12.457Z,6.80
2022-12-11T23:16:40.911Z,7.80
2022-12-11T23:19:09.344Z,7.50
2022-12-11T23:21:38.067Z,6.87
2022-12-11T23:24:07.595Z,7.70
2022-12-11T23:26:36.095Z,8.30
2022-12-11T23:29:06.012Z,7.40
2022-12-11T23:31:37.294Z,7.20
2022-12-11T23:34:05.654Z,6.97
2022-12-11T23:36:34.850Z,7.70
2022-12-11T23:39:03.367Z,7.03
2022-12-11T23:41:32.580Z,6.60
2022-12-11T23:44:01.091Z,6.73
2022-12-11T23:46:29.605Z,7.20
2022-12-11T23:48:59.382Z,7.37
2022-12-11T23:51:27.846Z,6.70
2022-12-11T23:53:56.398Z,6.60
2022-12-11T23:56:26.844Z,5.80
2022-12-11T23:58:56.149Z,6.50
